createdAt,value
2019-03-05T00:00:13.986Z,0
2019-03-05T00:00:54.364Z,0
2019-03-05T00:01:36.610Z,0
2019-03-05T00:02:19.734Z,0
2019-03-05T00:03:01.997Z,0
2019-03-05T00:03:42.911Z,0
2019-03-05T00:04:24.280Z,0
2019-03-05T00:05:06.676Z,0
2019-03-05T00:05:49.052Z,0
2019-03-05T00:06:29.484Z,0
2019-03-05T00:07:12.299Z,0
2019-03-05T00:07:52.837Z,0
2019-03-05T00:08:33.142Z,0
2019-03-05T00:09:24.035Z,0
2019-03-05T00:10:05.229Z,0
2019-03-05T00:10:45.729Z,0
2019-03-05T00:11:27.455Z,0
2019-03-05T00:12:08.535Z,0
2019-03-05T00:12:49.034Z,0
2019-03-05T00:13:30.183Z,0
2019-03-05T00:14:10.631Z,0
2019-03-05T00:14:52.885Z,0
2019-03-05T00:15:33.322Z,0
2019-03-05T00:16:14.600Z,0
2019-03-05T00:16:55.109Z,0
2019-03-05T00:17:36.077Z,0
2019-03-05T00:18:16.621Z,0
2019-03-05T00:18:58.230Z,0
2019-03-05T00:19:38.560Z,0
2019-03-05T00:20:19.234Z,0
2019-03-05T00:20:59.613Z,0
2019-03-05T00:21:42.028Z,0
2019-03-05T00:22:24.438Z,0
2019-03-05T00:23:08.303Z,0
2019-03-05T00:23:47.658Z,0
2019-03-05T00:24:27.995Z,0
2019-03-05T00:25:08.925Z,0
2019-03-05T00:25:49.241Z,0
2019-03-05T00:26:29.967Z,0
2019-03-05T00:27:10.425Z,0
2019-03-05T00:27:50.877Z,0
2019-03-05T00:28:31.409Z,0
2019-03-05T00:29:11.751Z,0
2019-03-05T00:29:54.224Z,0
2019-03-05T00:30:35.724Z,0
2019-03-05T00:31:16.092Z,0
2019-03-05T00:31:57.695Z,0
2019-03-05T00:32:38.113Z,0
2019-03-05T00:33:18.673Z,0
2019-03-05T00:33:59.084Z,0
2019-03-05T00:34:39.435Z,0
2019-03-05T00:35:19.813Z,0
2019-03-05T00:36:00.593Z,0
2019-03-05T00:36:44.542Z,0
2019-03-05T00:37:25.089Z,0
2019-03-05T00:38:05.414Z,0
2019-03-05T00:38:47.703Z,0
2019-03-05T00:39:29.732Z,0
2019-03-05T00:40:10.455Z,0
2019-03-05T00:40:52.643Z,0
2019-03-05T00:41:33.138Z,0
2019-03-05T00:42:16.668Z,0
2019-03-05T00:42:57.020Z,0
2019-03-05T00:43:39.032Z,0
2019-03-05T00:44:19.424Z,0
2019-03-05T00:44:59.817Z,0
2019-03-05T00:45:42.077Z,0
2019-03-05T00:46:25.298Z,0
2019-03-05T00:47:06.612Z,0
2019-03-05T00:47:47.053Z,0
2019-03-05T00:48:27.396Z,0
2019-03-05T00:49:07.784Z,0
2019-03-05T00:49:48.276Z,0
2019-03-05T00:50:29.667Z,0
2019-03-05T00:51:24.428Z,0
2019-03-05T00:51:58.763Z,0
2019-03-05T00:52:39.779Z,0
2019-03-05T00:53:21.813Z,0
2019-03-05T00:54:02.222Z,0
2019-03-05T00:54:42.677Z,0
2019-03-05T00:55:23.035Z,0
2019-03-05T00:56:05.108Z,0
2019-03-05T00:56:45.982Z,0
2019-03-05T00:57:26.437Z,0
2019-03-05T00:58:06.841Z,0
2019-03-05T00:58:49.384Z,0
2019-03-05T00:59:29.981Z,0
2019-03-05T01:00:10.261Z,0
2019-03-05T01:00:52.341Z,0
2019-03-05T01:01:32.283Z,0
2019-03-05T01:02:12.682Z,0
2019-03-05T01:02:58.793Z,0
2019-03-05T01:03:39.143Z,0
2019-03-05T01:04:22.980Z,0
2019-03-05T01:05:03.440Z,0
2019-03-05T01:05:47.322Z,0
2019-03-05T01:06:27.839Z,0
2019-03-05T01:07:08.253Z,0
2019-03-05T01:07:48.711Z,0
2019-03-05T01:08:30.866Z,0
2019-03-05T01:09:11.119Z,0
2019-03-05T01:09:53.188Z,0
2019-03-05T01:10:39.567Z,0
2019-03-05T01:11:21.499Z,0
2019-03-05T01:12:01.958Z,0
2019-03-05T01:12:44.102Z,0
2019-03-05T01:13:25.666Z,0
2019-03-05T01:14:06.496Z,0
2019-03-05T01:14:48.718Z,0
2019-03-05T01:15:30.837Z,0
2019-03-05T01:16:13.045Z,0
2019-03-05T01:16:55.436Z,0
2019-03-05T01:17:37.841Z,0
2019-03-05T01:18:19.880Z,0
2019-03-05T01:19:00.216Z,0
2019-03-05T01:19:40.907Z,0
2019-03-05T01:20:21.193Z,0
2019-03-05T01:21:01.806Z,0
2019-03-05T01:21:43.105Z,0
2019-03-05T01:22:23.430Z,0
2019-03-05T01:23:05.108Z,0
2019-03-05T01:23:45.507Z,0
2019-03-05T01:24:27.711Z,0
2019-03-05T01:25:08.166Z,0
2019-03-05T01:25:48.546Z,0
2019-03-05T01:26:32.543Z,0
2019-03-05T01:27:14.608Z,0
2019-03-05T01:27:55.062Z,0
2019-03-05T01:28:36.360Z,0
2019-03-05T01:29:16.820Z,0
2019-03-05T01:30:03.758Z,0
2019-03-05T01:30:48.241Z,0
2019-03-05T01:31:28.626Z,0
2019-03-05T01:32:13.395Z,0
2019-03-05T01:32:55.249Z,0
2019-03-05T01:33:37.713Z,0
2019-03-05T01:34:18.793Z,0
2019-03-05T01:34:59.326Z,0
2019-03-05T01:35:40.785Z,0
2019-03-05T01:36:21.202Z,0
2019-03-05T01:37:01.607Z,0
2019-03-05T01:37:42.015Z,0
2019-03-05T01:38:27.856Z,0
2019-03-05T01:39:08.354Z,0
2019-03-05T01:39:51.436Z,0
2019-03-05T01:40:31.898Z,0
2019-03-05T01:41:13.350Z,0
2019-03-05T01:41:55.043Z,0
2019-03-05T01:42:36.320Z,0
2019-03-05T01:43:16.774Z,0
2019-03-05T01:43:58.907Z,0
2019-03-05T01:44:41.305Z,0
2019-03-05T01:45:21.741Z,0
2019-03-05T01:46:02.243Z,0
2019-03-05T01:46:42.588Z,0
2019-03-05T01:47:25.936Z,0
2019-03-05T01:48:06.330Z,0
2019-03-05T01:48:46.930Z,0
2019-03-05T01:49:27.470Z,0
2019-03-05T01:50:09.486Z,0
2019-03-05T01:50:49.896Z,0
2019-03-05T01:51:31.102Z,0
2019-03-05T01:52:11.437Z,0
2019-03-05T01:52:53.843Z,0
2019-03-05T01:53:35.047Z,0
2019-03-05T01:54:17.101Z,0
2019-03-05T01:54:59.476Z,0
2019-03-05T01:55:41.614Z,0
2019-03-05T01:56:23.893Z,0
2019-03-05T01:57:04.218Z,0
2019-03-05T01:57:46.853Z,0
2019-03-05T01:58:27.012Z,0
2019-03-05T01:59:09.293Z,0
2019-03-05T01:59:51.319Z,0
2019-03-05T02:00:32.833Z,0
2019-03-05T02:01:13.138Z,0
2019-03-05T02:01:53.603Z,0
2019-03-05T02:02:34.072Z,0
2019-03-05T02:03:14.536Z,0
2019-03-05T02:03:56.115Z,0
2019-03-05T02:04:38.419Z,0
2019-03-05T02:05:19.877Z,0
2019-03-05T02:06:00.248Z,0
2019-03-05T02:06:40.680Z,0
2019-03-05T02:07:24.957Z,0
2019-03-05T02:08:06.675Z,0
2019-03-05T02:08:49.327Z,0
2019-03-05T02:09:31.602Z,0
2019-03-05T02:10:13.633Z,0
2019-03-05T02:10:54.167Z,0
2019-03-05T02:11:34.639Z,0
2019-03-05T02:12:16.235Z,0
2019-03-05T02:12:57.545Z,0
2019-03-05T02:13:38.355Z,0
2019-03-05T02:14:18.782Z,0
2019-03-05T02:15:02.197Z,0
2019-03-05T02:15:42.559Z,0
2019-03-05T02:16:23.273Z,0
2019-03-05T02:17:03.719Z,0
2019-03-05T02:17:45.757Z,0
2019-03-05T02:18:26.220Z,0
2019-03-05T02:19:06.600Z,0
2019-03-05T02:19:47.592Z,0
2019-03-05T02:20:29.867Z,0
2019-03-05T02:21:12.857Z,0
2019-03-05T02:21:53.379Z,0
2019-03-05T02:22:34.670Z,0
2019-03-05T02:23:16.043Z,0
2019-03-05T02:23:56.511Z,0
2019-03-05T02:24:40.252Z,0
2019-03-05T02:25:22.491Z,0
2019-03-05T02:26:05.131Z,0
2019-03-05T02:26:45.480Z,0
2019-03-05T02:27:25.797Z,0
2019-03-05T02:28:07.826Z,0
2019-03-05T02:28:48.241Z,0
2019-03-05T02:29:30.604Z,0
2019-03-05T02:30:12.626Z,0
2019-03-05T02:30:53.140Z,0
2019-03-05T02:31:37.112Z,0
2019-03-05T02:32:18.674Z,0
2019-03-05T02:33:00.099Z,0
2019-03-05T02:33:40.843Z,0
2019-03-05T02:34:22.170Z,0
2019-03-05T02:35:02.616Z,0
2019-03-05T02:35:42.926Z,0
2019-03-05T02:36:23.514Z,0
2019-03-05T02:37:03.758Z,0
2019-03-05T02:37:44.460Z,0
2019-03-05T02:38:24.829Z,0
2019-03-05T02:39:08.785Z,0
2019-03-05T02:39:50.273Z,0
2019-03-05T02:40:30.960Z,0
2019-03-05T02:41:13.589Z,0
2019-03-05T02:41:53.731Z,0
2019-03-05T02:42:36.016Z,0
2019-03-05T02:43:18.409Z,0
2019-03-05T02:43:58.962Z,0
2019-03-05T02:44:39.490Z,0
2019-03-05T02:45:21.611Z,0
2019-03-05T02:49:09.893Z,0
2019-03-05T02:49:52.939Z,0
2019-03-05T02:50:33.552Z,0
2019-03-05T02:51:13.953Z,0
2019-03-05T02:51:54.847Z,0
2019-03-05T02:52:35.403Z,0
2019-03-05T02:53:16.155Z,0
2019-03-05T02:53:56.600Z,0
2019-03-05T02:54:37.868Z,0
2019-03-05T02:55:18.733Z,0
2019-03-05T02:56:00.097Z,0
2019-03-05T02:56:44.392Z,0
2019-03-05T02:57:25.128Z,0
2019-03-05T02:58:05.715Z,0
2019-03-05T02:58:46.102Z,0
2019-03-05T02:59:26.614Z,0
2019-03-05T03:00:07.680Z,0
2019-03-05T03:00:47.902Z,0
2019-03-05T03:01:28.507Z,0
2019-03-05T03:02:08.890Z,0
2019-03-05T03:02:49.453Z,0
2019-03-05T03:03:29.770Z,0
2019-03-05T03:04:10.201Z,0
2019-03-05T03:04:50.912Z,0
2019-03-05T03:05:31.288Z,0
2019-03-05T03:06:11.638Z,0
2019-03-05T03:06:52.282Z,0
2019-03-05T03:07:32.835Z,0
2019-03-05T03:08:13.239Z,0
2019-03-05T03:08:53.701Z,0
2019-03-05T03:09:34.139Z,0
2019-03-05T03:10:14.682Z,0
2019-03-05T03:10:55.105Z,0
2019-03-05T03:11:35.764Z,0
2019-03-05T03:12:16.237Z,0
2019-03-05T03:12:56.924Z,0
2019-03-05T03:13:37.428Z,0
2019-03-05T03:14:18.139Z,0
2019-03-05T03:14:58.458Z,0
2019-03-05T03:15:38.996Z,0
2019-03-05T03:16:19.341Z,0
2019-03-05T03:17:00.551Z,0
2019-03-05T03:17:40.879Z,0
2019-03-05T03:18:21.290Z,0
2019-03-05T03:19:01.822Z,0
2019-03-05T03:19:42.246Z,0
2019-03-05T03:20:22.714Z,0
2019-03-05T03:21:03.425Z,0
2019-03-05T03:21:43.977Z,0
2019-03-05T03:22:24.516Z,0
2019-03-05T03:23:05.452Z,0
2019-03-05T03:23:46.003Z,0
2019-03-05T03:24:26.692Z,0
2019-03-05T03:25:07.266Z,0
2019-03-05T03:25:47.977Z,0
2019-03-05T03:26:28.334Z,0
2019-03-05T03:27:09.310Z,0
2019-03-05T03:27:49.844Z,0
2019-03-05T03:28:30.573Z,0
2019-03-05T03:29:11.607Z,0
2019-03-05T03:29:52.149Z,0
2019-03-05T03:30:32.799Z,0
2019-03-05T03:31:13.798Z,0
2019-03-05T03:31:54.294Z,0
2019-03-05T03:32:35.091Z,0
2019-03-05T03:33:16.807Z,0
2019-03-05T03:33:57.906Z,0
2019-03-05T03:34:38.508Z,0
2019-03-05T03:35:18.929Z,0
2019-03-05T03:35:59.305Z,0
2019-03-05T03:36:39.738Z,0
2019-03-05T03:37:21.026Z,0
2019-03-05T03:38:02.096Z,0
2019-03-05T03:38:42.794Z,0
2019-03-05T03:39:23.244Z,0
2019-03-05T03:40:06.128Z,0
2019-03-05T03:40:45.323Z,0
2019-03-05T03:41:26.403Z,0
2019-03-05T03:42:07.595Z,0
2019-03-05T03:42:47.986Z,0
2019-03-05T03:43:29.027Z,0
2019-03-05T03:44:09.698Z,0
2019-03-05T03:44:53.019Z,0
2019-03-05T03:45:33.974Z,0
2019-03-05T03:48:08.892Z,0
2019-03-05T03:50:50.673Z,0
2019-03-05T03:51:31.290Z,0
2019-03-05T03:52:11.779Z,0
2019-03-05T03:52:52.414Z,0
2019-03-05T03:53:32.931Z,0
2019-03-05T03:54:13.377Z,0
2019-03-05T03:54:53.789Z,0
2019-03-05T03:55:34.203Z,0
2019-03-05T03:56:14.872Z,0
2019-03-05T03:56:55.367Z,0
2019-03-05T03:57:35.938Z,0
2019-03-05T03:58:16.870Z,0
2019-03-05T03:58:57.309Z,0
2019-03-05T04:01:37.081Z,0
2019-03-05T04:02:18.023Z,0
2019-03-05T04:02:59.108Z,0
2019-03-05T04:03:40.508Z,0
2019-03-05T04:04:22.262Z,0
2019-03-05T04:07:05.625Z,0
2019-03-05T04:07:46.234Z,0
2019-03-05T04:08:26.370Z,0
2019-03-05T04:09:06.843Z,0
2019-03-05T04:09:47.172Z,0
2019-03-05T04:10:27.660Z,0
2019-03-05T04:11:08.435Z,0
2019-03-05T04:11:49.851Z,0
2019-03-05T04:12:31.059Z,0
2019-03-05T04:13:13.211Z,0
2019-03-05T04:13:53.805Z,0
2019-03-05T04:22:48.074Z,0
2019-03-05T04:23:28.322Z,0
2019-03-05T04:24:08.850Z,0
2019-03-05T04:24:49.585Z,0
2019-03-05T04:25:30.020Z,0
2019-03-05T04:26:10.903Z,0
2019-03-05T05:09:37.942Z,0
2019-03-05T05:10:19.476Z,0
2019-03-05T05:10:59.986Z,0
2019-03-05T05:11:41.366Z,0
2019-03-05T05:12:22.014Z,0
2019-03-05T05:13:03.172Z,0
2019-03-05T05:13:43.549Z,0
2019-03-05T05:14:24.666Z,0
2019-03-05T05:15:05.935Z,0
2019-03-05T05:15:46.202Z,0
2019-03-05T05:16:27.555Z,0
2019-03-05T05:17:07.763Z,0
2019-03-05T05:17:48.258Z,0
2019-03-05T05:18:28.850Z,0
2019-03-05T05:19:09.334Z,0
2019-03-05T05:19:49.852Z,0
2019-03-05T05:20:30.229Z,0
2019-03-05T05:21:10.552Z,0
2019-03-05T05:21:51.100Z,0
2019-03-05T05:22:31.590Z,0
2019-03-05T05:23:12.034Z,0
2019-03-05T05:23:52.706Z,0
2019-03-05T05:24:34.015Z,0
2019-03-05T05:25:14.611Z,0
2019-03-05T05:25:55.452Z,0
2019-03-05T05:26:35.871Z,0
2019-03-05T05:27:16.398Z,0
2019-03-05T05:27:59.158Z,0
2019-03-05T05:28:39.949Z,0
2019-03-05T05:29:20.327Z,0
2019-03-05T05:30:00.883Z,0
2019-03-05T05:30:42.062Z,0
2019-03-05T05:31:22.719Z,0
2019-03-05T05:32:03.276Z,0
2019-03-05T05:32:43.689Z,0
2019-03-05T05:33:24.138Z,0
2019-03-05T05:34:04.539Z,0
2019-03-05T05:34:44.945Z,0
2019-03-05T05:35:25.656Z,0
2019-03-05T05:36:06.126Z,0
2019-03-05T05:36:47.068Z,0
2019-03-05T05:37:27.131Z,0
2019-03-05T05:38:07.627Z,0
2019-03-05T05:38:48.119Z,0
2019-03-05T05:39:28.635Z,0
2019-03-05T05:40:09.127Z,0
2019-03-05T05:40:50.428Z,0
2019-03-05T05:41:30.501Z,0
2019-03-05T05:42:10.922Z,0
2019-03-05T05:42:51.522Z,0
2019-03-05T05:43:31.984Z,0
2019-03-05T05:44:12.703Z,0
2019-03-05T05:44:53.408Z,0
2019-03-05T05:45:33.560Z,0
2019-03-05T05:46:14.110Z,0
2019-03-05T05:46:54.663Z,0
2019-03-05T05:47:35.064Z,0
2019-03-05T05:48:16.103Z,0
2019-03-05T05:48:56.658Z,0
2019-03-05T05:49:37.419Z,0
2019-03-05T05:52:15.073Z,0
2019-03-05T05:52:57.899Z,0
2019-03-05T05:53:38.372Z,0
2019-03-05T05:54:20.302Z,0
2019-03-05T05:55:02.578Z,0
2019-03-05T05:55:43.942Z,0
2019-03-05T05:56:25.106Z,0
2019-03-05T05:57:05.674Z,0
2019-03-05T05:57:46.543Z,0
2019-03-05T05:58:27.273Z,0
2019-03-05T05:59:08.467Z,0
2019-03-05T05:59:49.246Z,0
2019-03-05T06:00:30.513Z,0
2019-03-05T06:01:11.157Z,0
2019-03-05T06:01:51.544Z,0
2019-03-05T06:02:32.599Z,0
2019-03-05T06:03:13.621Z,0
2019-03-05T06:03:54.866Z,0
2019-03-05T06:04:37.801Z,0
2019-03-05T06:05:18.666Z,0
2019-03-05T06:08:55.121Z,0
2019-03-05T06:09:35.668Z,0
2019-03-05T06:10:17.057Z,0
2019-03-05T06:11:00.255Z,0
2019-03-05T06:11:40.870Z,0
2019-03-05T06:14:14.680Z,0
2019-03-05T06:14:55.678Z,0
2019-03-05T06:15:36.205Z,0
2019-03-05T06:16:16.654Z,0
2019-03-05T06:16:57.495Z,0
2019-03-05T06:17:38.946Z,0
2019-03-05T06:18:19.274Z,0
2019-03-05T06:19:00.017Z,0
2019-03-05T06:19:40.098Z,0
2019-03-05T06:20:21.694Z,0
2019-03-05T06:21:02.299Z,0
2019-03-05T06:21:42.700Z,0
2019-03-05T06:22:23.185Z,0
2019-03-05T06:23:05.385Z,0
2019-03-05T06:23:45.613Z,0
2019-03-05T06:24:28.510Z,0
2019-03-05T06:25:09.186Z,0
2019-03-05T06:25:49.339Z,0
2019-03-05T06:26:29.726Z,0
2019-03-05T06:27:12.650Z,0
2019-03-05T06:27:53.966Z,0
2019-03-05T06:28:34.708Z,0
2019-03-05T06:29:15.166Z,0
2019-03-05T06:30:02.320Z,0
2019-03-05T06:30:42.733Z,0
2019-03-05T06:31:23.531Z,0
2019-03-05T06:32:06.365Z,0
2019-03-05T06:32:47.897Z,0
2019-03-05T06:33:30.229Z,0
2019-03-05T06:34:13.300Z,0
2019-03-05T06:34:57.883Z,0
2019-03-05T06:35:39.995Z,0
2019-03-05T06:36:21.711Z,0
2019-03-05T06:37:11.694Z,0
2019-03-05T06:37:55.221Z,0
2019-03-05T06:38:36.169Z,0
2019-03-05T06:39:16.520Z,0
2019-03-05T06:39:57.011Z,0
2019-03-05T06:40:37.527Z,0
2019-03-05T06:41:20.372Z,0
2019-03-05T06:42:01.557Z,0
2019-03-05T06:42:42.394Z,0
2019-03-05T06:43:23.063Z,0
2019-03-05T06:44:03.273Z,0
2019-03-05T06:44:44.901Z,0
2019-03-05T06:45:26.140Z,0
2019-03-05T06:46:06.933Z,0
2019-03-05T06:46:51.462Z,0
2019-03-05T06:47:32.739Z,0
2019-03-05T06:48:14.022Z,0
2019-03-05T06:48:54.951Z,0
2019-03-05T06:49:36.239Z,0
2019-03-05T06:50:17.537Z,0
2019-03-05T06:50:57.850Z,0
2019-03-05T06:51:38.452Z,0
2019-03-05T06:52:19.023Z,0
2019-03-05T06:53:00.023Z,0
2019-03-05T06:53:40.459Z,0
2019-03-05T06:54:21.233Z,0
2019-03-05T06:55:01.646Z,0
2019-03-05T06:55:42.273Z,0
2019-03-05T06:56:23.345Z,0
2019-03-05T06:57:03.698Z,0
2019-03-05T06:57:44.433Z,0
2019-03-05T06:58:25.059Z,0
2019-03-05T06:59:05.807Z,0
2019-03-05T06:59:46.669Z,0
2019-03-05T07:00:27.211Z,0
2019-03-05T07:01:07.608Z,0
2019-03-05T07:01:48.711Z,0
2019-03-05T07:02:29.033Z,0
2019-03-05T07:03:10.763Z,0
2019-03-05T07:03:50.838Z,0
2019-03-05T07:04:31.268Z,0
2019-03-05T07:05:11.799Z,0
2019-03-05T07:05:54.519Z,0
2019-03-05T07:06:36.003Z,0
2019-03-05T07:07:16.566Z,0
2019-03-05T07:08:01.307Z,0
2019-03-05T07:14:15.067Z,0
2019-03-05T07:14:59.824Z,0
2019-03-05T07:15:40.404Z,0
2019-03-05T07:16:21.947Z,0
2019-03-05T07:17:03.205Z,0
2019-03-05T07:17:44.984Z,0
2019-03-05T07:18:27.852Z,0
2019-03-05T07:19:08.472Z,0
2019-03-05T07:19:58.082Z,0
2019-03-05T07:20:35.827Z,0
2019-03-05T07:21:17.026Z,0
2019-03-05T07:21:57.868Z,0
2019-03-05T07:22:41.281Z,5
2019-03-05T07:23:24.186Z,5
2019-03-05T07:24:05.956Z,5
2019-03-05T07:24:50.964Z,5
2019-03-05T07:25:31.044Z,5
2019-03-05T07:26:13.771Z,5
2019-03-05T07:26:54.675Z,5
2019-03-05T07:33:38.862Z,5
2019-03-05T07:34:32.305Z,5
2019-03-05T07:49:55.428Z,15
2019-03-05T07:50:48.221Z,15
2019-03-05T07:51:28.861Z,10
2019-03-05T07:52:08.854Z,10
2019-03-05T07:52:50.188Z,10
2019-03-05T07:53:30.476Z,10
2019-03-05T07:54:10.937Z,10
2019-03-05T07:54:54.087Z,10
2019-03-05T07:55:35.393Z,10
2019-03-05T07:56:17.482Z,10
2019-03-05T07:56:57.875Z,10
2019-03-05T07:57:40.107Z,10
2019-03-05T07:58:22.403Z,10
2019-03-05T07:59:03.039Z,10
2019-03-05T07:59:53.621Z,10
2019-03-05T08:00:34.147Z,10
2019-03-05T08:01:22.052Z,10
2019-03-05T08:01:55.305Z,10
2019-03-05T08:02:35.781Z,10
2019-03-05T08:03:16.565Z,10
2019-03-05T08:03:57.100Z,10
2019-03-05T08:04:38.582Z,10
2019-03-05T08:05:19.791Z,10
2019-03-05T08:06:03.748Z,10
2019-03-05T08:06:44.475Z,10
2019-03-05T08:07:27.413Z,10
2019-03-05T08:08:07.922Z,10
2019-03-05T08:08:48.884Z,10
2019-03-05T08:09:29.557Z,10
2019-03-05T08:10:10.949Z,10
2019-03-05T08:10:51.302Z,10
2019-03-05T08:11:32.141Z,10
2019-03-05T08:12:12.602Z,10
2019-03-05T08:12:53.139Z,10
2019-03-05T08:13:34.435Z,5
2019-03-05T08:14:14.453Z,5
2019-03-05T08:14:55.491Z,10
2019-03-05T08:15:36.971Z,5
2019-03-05T08:16:17.153Z,10
2019-03-05T08:16:59.592Z,10
2019-03-05T08:17:40.217Z,10
2019-03-05T08:18:22.820Z,10
2019-03-05T08:19:03.073Z,10
2019-03-05T08:19:43.518Z,10
2019-03-05T08:20:27.389Z,10
2019-03-05T08:21:08.125Z,10
2019-03-05T08:21:48.398Z,15
2019-03-05T08:22:30.917Z,10
2019-03-05T08:23:13.934Z,15
2019-03-05T08:23:54.614Z,15
2019-03-05T08:24:36.780Z,15
2019-03-05T08:25:17.378Z,15
2019-03-05T08:25:58.591Z,15
2019-03-05T08:26:39.142Z,10
2019-03-05T08:27:20.477Z,15
2019-03-05T08:28:01.407Z,15
2019-03-05T08:28:42.164Z,15
2019-03-05T08:29:25.142Z,15
2019-03-05T08:30:14.012Z,15
2019-03-05T08:30:48.492Z,15
2019-03-05T08:31:33.746Z,15
2019-03-05T08:32:14.545Z,15
2019-03-05T08:32:55.677Z,15
2019-03-05T08:41:28.804Z,15
2019-03-05T08:42:10.970Z,15
2019-03-05T08:42:54.194Z,15
2019-03-05T08:43:47.504Z,15
2019-03-05T08:44:31.404Z,15
2019-03-05T08:45:14.878Z,15
2019-03-05T08:45:56.905Z,15
2019-03-05T08:46:39.853Z,10
2019-03-05T08:47:22.868Z,15
2019-03-05T08:48:06.798Z,15
2019-03-05T08:48:53.122Z,15
2019-03-05T08:49:36.231Z,15
2019-03-05T08:50:26.613Z,15
2019-03-05T08:51:15.171Z,10
2019-03-05T08:51:57.488Z,15
2019-03-05T08:52:39.879Z,15
2019-03-05T08:53:20.239Z,20
2019-03-05T08:54:01.930Z,20
2019-03-05T08:54:42.222Z,25
2019-03-05T08:55:28.702Z,25
2019-03-05T08:56:12.465Z,25
2019-03-05T08:56:56.866Z,25
2019-03-05T08:57:39.248Z,25
2019-03-05T08:58:22.496Z,25
2019-03-05T08:59:02.849Z,25
2019-03-05T08:59:46.047Z,25
2019-03-05T09:00:30.637Z,20
2019-03-05T09:01:16.951Z,20
2019-03-05T09:03:50.047Z,20
2019-03-05T09:04:35.453Z,20
2019-03-05T09:05:19.760Z,15
2019-03-05T09:06:01.988Z,15
2019-03-05T09:06:43.392Z,15
2019-03-05T09:07:25.494Z,10
2019-03-05T09:08:05.863Z,10
2019-03-05T09:08:52.362Z,10
2019-03-05T09:09:34.216Z,10
2019-03-05T09:10:18.636Z,10
2019-03-05T09:11:01.148Z,10
2019-03-05T09:11:44.452Z,15
2019-03-05T09:12:25.083Z,15
2019-03-05T09:13:10.987Z,20
2019-03-05T09:13:55.955Z,20
2019-03-05T09:14:39.583Z,25
2019-03-05T09:15:25.642Z,25
2019-03-05T09:16:06.025Z,25
2019-03-05T09:16:46.947Z,20
2019-03-05T09:17:29.936Z,20
2019-03-05T09:18:15.966Z,20
2019-03-05T09:18:57.864Z,20
2019-03-05T09:19:40.907Z,20
2019-03-05T09:20:26.066Z,20
2019-03-05T09:21:12.631Z,20
2019-03-05T09:21:53.312Z,20
2019-03-05T09:25:55.761Z,20
2019-03-05T09:27:58.978Z,15
2019-03-05T09:28:41.071Z,10
2019-03-05T09:29:21.528Z,10
2019-03-05T09:30:04.689Z,10
2019-03-05T09:30:48.120Z,10
2019-03-05T09:31:31.464Z,10
2019-03-05T09:32:18.009Z,10
2019-03-05T09:33:03.952Z,10
2019-03-05T09:33:49.956Z,15
2019-03-05T09:34:30.267Z,15
2019-03-05T09:35:11.498Z,20
2019-03-05T09:37:34.900Z,20
2019-03-05T09:38:15.667Z,20
2019-03-05T09:38:57.053Z,15
2019-03-05T09:39:37.458Z,15
2019-03-05T09:40:18.041Z,15
2019-03-05T09:40:58.710Z,15
2019-03-05T09:41:39.363Z,15
2019-03-05T09:42:20.323Z,15
2019-03-05T09:43:03.532Z,15
2019-03-05T09:43:44.698Z,15
2019-03-05T09:44:25.943Z,20
2019-03-05T09:45:06.317Z,20
2019-03-05T09:45:51.993Z,20
2019-03-05T09:46:32.871Z,20
2019-03-05T09:47:14.482Z,20
2019-03-05T09:47:55.537Z,20
2019-03-05T09:48:36.413Z,15
2019-03-05T09:49:17.128Z,20
2019-03-05T09:49:57.527Z,20
2019-03-05T09:50:38.594Z,20
2019-03-05T09:51:19.124Z,20
2019-03-05T09:51:59.996Z,15
2019-03-05T09:52:41.564Z,15
2019-03-05T09:53:22.574Z,15
2019-03-05T09:54:04.579Z,20
2019-03-05T09:54:45.908Z,20
2019-03-05T09:55:27.295Z,20
2019-03-05T09:56:08.299Z,20
2019-03-05T09:56:48.904Z,20
2019-03-05T09:57:33.319Z,20
2019-03-05T09:58:14.640Z,25
2019-03-05T09:58:56.044Z,25
2019-03-05T09:59:36.972Z,30
2019-03-05T10:00:17.850Z,30
2019-03-05T10:00:58.258Z,25
2019-03-05T10:01:40.933Z,20
2019-03-05T10:02:22.587Z,20
2019-03-05T10:03:03.829Z,20
2019-03-05T10:03:45.020Z,25
2019-03-05T10:04:25.673Z,25
2019-03-05T10:05:06.254Z,25
2019-03-05T10:05:46.704Z,25
2019-03-05T10:06:27.991Z,25
2019-03-05T10:07:18.465Z,25
2019-03-05T10:07:50.547Z,25
2019-03-05T10:08:32.610Z,25
2019-03-05T10:09:11.300Z,25
2019-03-05T10:09:52.142Z,30
2019-03-05T10:10:33.502Z,30
2019-03-05T10:11:15.745Z,30
2019-03-05T10:11:57.000Z,25
2019-03-05T10:12:37.170Z,25
2019-03-05T10:13:18.884Z,30
2019-03-05T10:13:59.665Z,30
2019-03-05T10:14:44.308Z,35
2019-03-05T10:15:26.492Z,40
2019-03-05T10:16:07.201Z,40
2019-03-05T10:16:47.807Z,40
2019-03-05T10:17:37.566Z,35
2019-03-05T10:18:12.870Z,35
2019-03-05T10:18:56.314Z,35
2019-03-05T10:21:19.649Z,25
2019-03-05T10:22:00.592Z,25
2019-03-05T10:22:42.589Z,25
2019-03-05T10:23:25.941Z,25
2019-03-05T10:24:10.290Z,25
2019-03-05T10:24:48.537Z,25
2019-03-05T10:25:30.029Z,25
2019-03-05T10:26:14.234Z,25
2019-03-05T10:26:58.993Z,25
2019-03-05T10:27:42.743Z,20
2019-03-05T10:28:24.758Z,20
2019-03-05T10:29:09.298Z,25
2019-03-05T11:07:13.513Z,45
2019-03-05T11:07:54.126Z,45
2019-03-05T11:08:37.291Z,40
2019-03-05T11:09:19.821Z,40
2019-03-05T11:10:01.684Z,40
2019-03-05T11:21:05.556Z,45
2019-03-05T11:21:49.070Z,50
2019-03-05T11:22:30.483Z,50
2019-03-05T11:23:12.044Z,45
2019-03-05T11:23:56.207Z,45
2019-03-05T11:24:37.427Z,45
2019-03-05T11:25:18.057Z,45
2019-03-05T11:26:00.100Z,45
2019-03-05T11:26:44.864Z,45
2019-03-05T11:27:25.152Z,45
2019-03-05T11:28:05.575Z,45
2019-03-05T11:28:47.863Z,45
2019-03-05T11:29:29.691Z,45
2019-03-05T11:30:16.185Z,45
2019-03-05T11:30:59.264Z,45
2019-03-05T11:31:40.031Z,45
2019-03-05T11:32:21.294Z,40
2019-03-05T11:33:04.019Z,30
2019-03-05T11:33:44.364Z,35
2019-03-05T11:34:26.607Z,35
2019-03-05T11:35:06.926Z,35
2019-03-05T11:35:47.373Z,40
2019-03-05T11:36:28.215Z,45
2019-03-05T11:37:10.581Z,45
2019-03-05T11:37:54.812Z,40
2019-03-05T11:38:37.864Z,30
2019-03-05T11:39:23.263Z,30
2019-03-05T11:40:06.279Z,25
2019-03-05T11:40:46.879Z,25
2019-03-05T11:41:29.337Z,25
2019-03-05T11:42:12.667Z,25
2019-03-05T11:42:58.537Z,25
2019-03-05T11:43:38.994Z,30
2019-03-05T11:50:28.542Z,40
2019-03-05T11:51:09.915Z,40
2019-03-05T11:51:51.946Z,40
2019-03-05T11:52:32.315Z,45
2019-03-05T11:53:12.940Z,40
2019-03-05T11:53:53.502Z,40
2019-03-05T11:54:36.026Z,40
2019-03-05T11:55:16.444Z,45
2019-03-05T11:55:57.571Z,45
2019-03-05T11:56:37.927Z,45
2019-03-05T11:57:22.568Z,45
2019-03-05T11:58:06.859Z,45
2019-03-05T11:58:47.188Z,45
2019-03-05T12:19:26.466Z,25
2019-03-05T12:20:11.546Z,30
2019-03-05T12:20:57.642Z,35
2019-03-05T12:21:40.867Z,35
2019-03-05T12:22:24.206Z,45
2019-03-05T12:23:06.551Z,40
2019-03-05T12:23:48.756Z,40
2019-03-05T12:24:33.428Z,40
2019-03-05T12:25:14.163Z,40
2019-03-05T12:25:58.667Z,40
2019-03-05T12:26:40.869Z,40
2019-03-05T12:27:25.264Z,40
2019-03-05T12:28:10.043Z,40
2019-03-05T12:28:47.473Z,40
2019-03-05T12:29:29.697Z,40
2019-03-05T12:30:11.780Z,35
2019-03-05T12:30:53.778Z,35
2019-03-05T12:31:36.007Z,35
2019-03-05T12:32:16.900Z,40
2019-03-05T12:32:59.964Z,35
2019-03-05T12:33:40.375Z,35
2019-03-05T12:34:24.285Z,35
2019-03-05T12:35:05.709Z,35
2019-03-05T12:35:51.335Z,35
2019-03-05T12:36:33.360Z,30
2019-03-05T12:37:14.852Z,40
2019-03-05T12:37:57.062Z,35
2019-03-05T12:38:39.175Z,35
2019-03-05T12:39:19.574Z,30
2019-03-05T12:40:02.167Z,30
2019-03-05T12:40:42.831Z,40
2019-03-05T12:41:34.295Z,40
2019-03-05T12:42:17.376Z,30
2019-03-05T12:43:02.886Z,30
2019-03-05T12:43:43.179Z,35
2019-03-05T12:44:30.140Z,35
2019-03-05T12:45:14.211Z,40
2019-03-05T12:45:55.886Z,40
2019-03-05T12:46:36.692Z,40
2019-03-05T12:47:19.703Z,40
2019-03-05T12:47:59.837Z,40
2019-03-05T12:48:40.630Z,40
2019-03-05T12:49:20.658Z,40
2019-03-05T13:05:09.464Z,50
2019-03-05T13:05:50.746Z,40
2019-03-05T13:06:32.219Z,40
2019-03-05T13:07:14.094Z,40
2019-03-05T13:07:56.355Z,40
2019-03-05T13:08:37.403Z,40
2019-03-05T13:09:23.275Z,40
2019-03-05T13:10:04.745Z,40
2019-03-05T13:10:48.336Z,40
2019-03-05T13:11:31.706Z,40
2019-03-05T13:12:12.123Z,40
2019-03-05T13:12:54.491Z,40
2019-03-05T13:13:37.448Z,40
2019-03-05T13:14:22.961Z,40
2019-03-05T13:15:05.830Z,40
2019-03-05T13:15:46.293Z,40
2019-03-05T13:16:27.044Z,40
2019-03-05T13:17:11.344Z,40
2019-03-05T13:17:54.700Z,40
2019-03-05T13:18:35.132Z,45
2019-03-05T13:19:21.632Z,55
2019-03-05T13:20:07.866Z,50
2019-03-05T13:20:48.471Z,50
2019-03-05T13:21:33.862Z,40
2019-03-05T13:22:16.888Z,50
2019-03-05T13:22:57.321Z,35
2019-03-05T13:23:37.768Z,45
2019-03-05T13:24:22.531Z,35
2019-03-05T13:25:06.048Z,35
2019-03-05T13:25:48.024Z,35
2019-03-05T13:26:30.708Z,35
2019-03-05T13:27:18.695Z,35
2019-03-05T13:28:01.904Z,35
2019-03-05T13:28:45.096Z,30
2019-03-05T13:29:26.177Z,30